sensor_id;sensor_type;location;lat;lon;timestamp;temperature;humidity
24162;DHT22;12318;51.262;7.066;2023-04-03T00:00:23;1.70;99.90
24162;DHT22;12318;51.262;7.066;2023-04-03T00:02:49;1.70;99.90
24162;DHT22;12318;51.262;7.066;2023-04-03T00:05:14;1.60;99.90
24162;DHT22;12318;51.262;7.066;2023-04-03T00:07:40;1.70;99.90
24162;DHT22;12318;51.262;7.066;2023-04-03T00:10:06;1.70;99.90
24162;DHT22;12318;51.262;7.066;2023-04-03T00:12:33;1.80;99.90
24162;DHT22;12318;51.262;7.066;2023-04-03T00:14:58;1.80;99.90
24162;DHT22;12318;51.262;7.066;2023-04-03T00:17:25;1.80;99.90
24162;DHT22;12318;51.262;7.066;2023-04-03T00:19:50;1.50;99.90
24162;DHT22;12318;51.262;7.066;2023-04-03T00:22:16;1.30;99.90
24162;DHT22;12318;51.262;7.066;2023-04-03T00:24:42;1.30;99.90
24162;DHT22;12318;51.262;7.066;2023-04-03T00:27:08;1.40;99.90
24162;DHT22;12318;51.262;7.066;2023-04-03T00:29:33;1.40;99.90
24162;DHT22;12318;51.262;7.066;2023-04-03T00:32:00;1.50;99.90
24162;DHT22;12318;51.262;7.066;2023-04-03T00:34:26;1.60;99.90
24162;DHT22;12318;51.262;7.066;2023-04-03T00:36:51;1.70;99.90
24162;DHT22;12318;51.262;7.066;2023-04-03T00:39:17;1.50;99.90
24162;DHT22;12318;51.262;7.066;2023-04-03T00:41:43;1.50;99.90
24162;DHT22;12318;51.262;7.066;2023-04-03T00:46:53;1.60;99.90
24162;DHT22;12318;51.262;7.066;2023-04-03T00:49:19;1.60;99.90
24162;DHT22;12318;51.262;7.066;2023-04-03T00:51:46;1.60;99.90
24162;DHT22;12318;51.262;7.066;2023-04-03T00:54:12;1.70;99.90
24162;DHT22;12318;51.262;7.066;2023-04-03T00:56:38;1.80;99.90
24162;DHT22;12318;51.262;7.066;2023-04-03T00:59:15;1.70;99.90
24162;DHT22;12318;51.262;7.066;2023-04-03T01:01:42;1.80;99.90
24162;DHT22;12318;51.262;7.066;2023-04-03T01:04:28;1.90;99.90
24162;DHT22;12318;51.262;7.066;2023-04-03T01:06:57;1.60;99.90
24162;DHT22;12318;51.262;7.066;2023-04-03T01:09:23;1.60;99.90
24162;DHT22;12318;51.262;7.066;2023-04-03T01:11:50;1.80;99.90
24162;DHT22;12318;51.262;7.066;2023-04-03T01:14:15;1.80;99.90
24162;DHT22;12318;51.262;7.066;2023-04-03T01:16:41;1.60;99.90
24162;DHT22;12318;51.262;7.066;2023-04-03T01:19:11;1.60;99.90
24162;DHT22;12318;51.262;7.066;2023-04-03T01:21:52;1.70;99.90
24162;DHT22;12318;51.262;7.066;2023-04-03T01:24:28;1.70;99.90
24162;DHT22;12318;51.262;7.066;2023-04-03T01:26:57;2.00;99.90
24162;DHT22;12318;51.262;7.066;2023-04-03T01:29:23;2.00;99.90
24162;DHT22;12318;51.262;7.066;2023-04-03T01:31:57;2.00;99.90
24162;DHT22;12318;51.262;7.066;2023-04-03T01:34:24;2.10;99.90
24162;DHT22;12318;51.262;7.066;2023-04-03T01:36:50;2.10;99.90
24162;DHT22;12318;51.262;7.066;2023-04-03T01:39:16;2.00;99.90
24162;DHT22;12318;51.262;7.066;2023-04-03T01:41:43;2.00;99.90
24162;DHT22;12318;51.262;7.066;2023-04-03T01:44:09;2.00;99.90
24162;DHT22;12318;51.262;7.066;2023-04-03T01:46:34;1.90;99.90
24162;DHT22;12318;51.262;7.066;2023-04-03T01:49:01;1.90;99.90
24162;DHT22;12318;51.262;7.066;2023-04-03T01:51:27;2.00;99.90
24162;DHT22;12318;51.262;7.066;2023-04-03T01:53:52;2.00;99.90
24162;DHT22;12318;51.262;7.066;2023-04-03T01:56:18;2.00;99.90
24162;DHT22;12318;51.262;7.066;2023-04-03T01:58:44;1.90;99.90
24162;DHT22;12318;51.262;7.066;2023-04-03T02:01:10;1.90;99.90
24162;DHT22;12318;51.262;7.066;2023-04-03T02:03:35;1.90;99.90
24162;DHT22;12318;51.262;7.066;2023-04-03T02:06:02;1.80;99.90
24162;DHT22;12318;51.262;7.066;2023-04-03T02:08:27;1.80;99.90
24162;DHT22;12318;51.262;7.066;2023-04-03T02:10:53;2.00;99.90
24162;DHT22;12318;51.262;7.066;2023-04-03T02:13:19;2.10;99.90
24162;DHT22;12318;51.262;7.066;2023-04-03T02:15:45;2.10;99.90
24162;DHT22;12318;51.262;7.066;2023-04-03T02:18:12;2.10;99.90
24162;DHT22;12318;51.262;7.066;2023-04-03T02:20:37;2.00;99.90
24162;DHT22;12318;51.262;7.066;2023-04-03T02:23:03;1.90;99.90
24162;DHT22;12318;51.262;7.066;2023-04-03T02:25:33;1.90;99.90
24162;DHT22;12318;51.262;7.066;2023-04-03T02:27:59;1.90;99.90
24162;DHT22;12318;51.262;7.066;2023-04-03T02:30:25;1.80;99.90
24162;DHT22;12318;51.262;7.066;2023-04-03T02:32:52;1.70;99.90
24162;DHT22;12318;51.262;7.066;2023-04-03T02:35:18;1.60;99.90
24162;DHT22;12318;51.262;7.066;2023-04-03T02:37:43;1.60;99.90
24162;DHT22;12318;51.262;7.066;2023-04-03T02:40:09;1.50;99.90
24162;DHT22;12318;51.262;7.066;2023-04-03T02:42:37;1.40;99.90
24162;DHT22;12318;51.262;7.066;2023-04-03T02:45:03;1.50;99.90
24162;DHT22;12318;51.262;7.066;2023-04-03T02:47:29;1.60;99.90
24162;DHT22;12318;51.262;7.066;2023-04-03T02:49:55;1.50;99.90
24162;DHT22;12318;51.262;7.066;2023-04-03T02:52:21;1.50;99.90
24162;DHT22;12318;51.262;7.066;2023-04-03T02:54:47;1.50;99.90
24162;DHT22;12318;51.262;7.066;2023-04-03T02:57:12;1.50;99.90
24162;DHT22;12318;51.262;7.066;2023-04-03T02:59:38;1.50;99.90
24162;DHT22;12318;51.262;7.066;2023-04-03T03:02:08;1.40;99.90
24162;DHT22;12318;51.262;7.066;2023-04-03T03:04:34;1.40;99.90
24162;DHT22;12318;51.262;7.066;2023-04-03T03:07:00;1.30;99.90
24162;DHT22;12318;51.262;7.066;2023-04-03T03:09:26;1.30;99.90
24162;DHT22;12318;51.262;7.066;2023-04-03T03:11:52;1.30;99.90
24162;DHT22;12318;51.262;7.066;2023-04-03T03:14:18;1.20;99.90
24162;DHT22;12318;51.262;7.066;2023-04-03T03:16:44;1.20;99.90
24162;DHT22;12318;51.262;7.066;2023-04-03T03:19:09;1.10;99.90
24162;DHT22;12318;51.262;7.066;2023-04-03T03:21:36;1.10;99.90
24162;DHT22;12318;51.262;7.066;2023-04-03T03:24:02;1.20;99.90
24162;DHT22;12318;51.262;7.066;2023-04-03T03:26:28;1.30;99.90
24162;DHT22;12318;51.262;7.066;2023-04-03T03:28:53;1.20;99.90
24162;DHT22;12318;51.262;7.066;2023-04-03T03:31:20;1.20;99.90
24162;DHT22;12318;51.262;7.066;2023-04-03T03:33:45;1.30;99.90
24162;DHT22;12318;51.262;7.066;2023-04-03T03:36:11;1.20;99.90
24162;DHT22;12318;51.262;7.066;2023-04-03T03:38:37;1.20;99.90
24162;DHT22;12318;51.262;7.066;2023-04-03T03:41:03;1.20;99.90
24162;DHT22;12318;51.262;7.066;2023-04-03T03:43:29;1.20;99.90
24162;DHT22;12318;51.262;7.066;2023-04-03T03:45:55;1.20;99.90
24162;DHT22;12318;51.262;7.066;2023-04-03T03:48:21;1.10;99.90
24162;DHT22;12318;51.262;7.066;2023-04-03T03:50:48;1.10;99.90
24162;DHT22;12318;51.262;7.066;2023-04-03T03:53:14;1.00;99.90
24162;DHT22;12318;51.262;7.066;2023-04-03T03:55:40;1.10;99.90
24162;DHT22;12318;51.262;7.066;2023-04-03T03:58:06;1.20;99.90
24162;DHT22;12318;51.262;7.066;2023-04-03T04:00:32;1.10;99.90
24162;DHT22;12318;51.262;7.066;2023-04-03T04:02:58;1.10;99.90
24162;DHT22;12318;51.262;7.066;2023-04-03T04:05:24;1.00;99.90
24162;DHT22;12318;51.262;7.066;2023-04-03T04:07:50;1.10;99.90
24162;DHT22;12318;51.262;7.066;2023-04-03T04:10:16;1.10;99.90
24162;DHT22;12318;51.262;7.066;2023-04-03T04:12:42;1.00;99.90
24162;DHT22;12318;51.262;7.066;2023-04-03T04:15:08;1.10;99.90
24162;DHT22;12318;51.262;7.066;2023-04-03T04:17:34;1.10;99.90
24162;DHT22;12318;51.262;7.066;2023-04-03T04:20:01;1.00;99.90
24162;DHT22;12318;51.262;7.066;2023-04-03T04:22:28;1.00;99.90
24162;DHT22;12318;51.262;7.066;2023-04-03T04:24:54;0.90;99.90
24162;DHT22;12318;51.262;7.066;2023-04-03T04:27:19;0.90;99.90
24162;DHT22;12318;51.262;7.066;2023-04-03T04:29:45;0.80;99.90
24162;DHT22;12318;51.262;7.066;2023-04-03T04:32:11;0.80;99.90
24162;DHT22;12318;51.262;7.066;2023-04-03T04:34:37;0.70;99.90
24162;DHT22;12318;51.262;7.066;2023-04-03T04:37:03;0.80;99.90
24162;DHT22;12318;51.262;7.066;2023-04-03T04:39:28;0.70;99.90
24162;DHT22;12318;51.262;7.066;2023-04-03T04:41:54;0.70;99.90
24162;DHT22;12318;51.262;7.066;2023-04-03T04:44:20;0.60;99.90
24162;DHT22;12318;51.262;7.066;2023-04-03T04:46:46;0.60;99.90
24162;DHT22;12318;51.262;7.066;2023-04-03T04:49:12;0.60;99.90
24162;DHT22;12318;51.262;7.066;2023-04-03T04:51:38;0.50;99.90
24162;DHT22;12318;51.262;7.066;2023-04-03T04:54:04;0.50;99.90
24162;DHT22;12318;51.262;7.066;2023-04-03T04:56:29;0.40;99.90
24162;DHT22;12318;51.262;7.066;2023-04-03T04:58:55;0.50;99.90
24162;DHT22;12318;51.262;7.066;2023-04-03T05:01:21;0.40;99.90
24162;DHT22;12318;51.262;7.066;2023-04-03T05:03:47;0.30;99.90
24162;DHT22;12318;51.262;7.066;2023-04-03T05:06:13;0.20;99.90
24162;DHT22;12318;51.262;7.066;2023-04-03T05:08:39;0.20;99.90
24162;DHT22;12318;51.262;7.066;2023-04-03T05:11:05;0.30;99.90
24162;DHT22;12318;51.262;7.066;2023-04-03T05:13:31;0.30;99.90
24162;DHT22;12318;51.262;7.066;2023-04-03T05:15:56;0.40;99.90
24162;DHT22;12318;51.262;7.066;2023-04-03T05:18:22;0.40;99.90
24162;DHT22;12318;51.262;7.066;2023-04-03T05:20:49;0.40;99.90
24162;DHT22;12318;51.262;7.066;2023-04-03T05:23:17;0.30;99.90
24162;DHT22;12318;51.262;7.066;2023-04-03T05:25:43;0.30;99.90
24162;DHT22;12318;51.262;7.066;2023-04-03T05:28:11;0.30;99.90
24162;DHT22;12318;51.262;7.066;2023-04-03T05:30:36;0.30;99.90
24162;DHT22;12318;51.262;7.066;2023-04-03T05:33:03;0.30;99.90
24162;DHT22;12318;51.262;7.066;2023-04-03T05:35:29;0.30;99.90
24162;DHT22;12318;51.262;7.066;2023-04-03T05:37:54;0.20;99.90
24162;DHT22;12318;51.262;7.066;2023-04-03T05:40:20;0.20;99.90
24162;DHT22;12318;51.262;7.066;2023-04-03T05:42:46;0.10;99.90
24162;DHT22;12318;51.262;7.066;2023-04-03T05:45:12;0.10;99.90
24162;DHT22;12318;51.262;7.066;2023-04-03T05:47:38;0.20;99.90
24162;DHT22;12318;51.262;7.066;2023-04-03T05:50:04;0.30;99.90
24162;DHT22;12318;51.262;7.066;2023-04-03T05:52:34;0.30;99.90
24162;DHT22;12318;51.262;7.066;2023-04-03T05:55:00;0.30;99.90
24162;DHT22;12318;51.262;7.066;2023-04-03T05:57:26;0.40;99.90
24162;DHT22;12318;51.262;7.066;2023-04-03T05:59:52;0.40;99.90
24162;DHT22;12318;51.262;7.066;2023-04-03T06:02:20;0.50;99.90
24162;DHT22;12318;51.262;7.066;2023-04-03T06:04:46;0.60;99.90
24162;DHT22;12318;51.262;7.066;2023-04-03T06:07:21;0.50;99.90
24162;DHT22;12318;51.262;7.066;2023-04-03T06:09:49;0.60;99.90
24162;DHT22;12318;51.262;7.066;2023-04-03T06:12:15;0.70;99.90
24162;DHT22;12318;51.262;7.066;2023-04-03T06:14:41;0.80;99.90
24162;DHT22;12318;51.262;7.066;2023-04-03T06:17:06;0.90;99.90
24162;DHT22;12318;51.262;7.066;2023-04-03T06:19:34;0.90;99.90
24162;DHT22;12318;51.262;7.066;2023-04-03T06:22:00;1.10;99.90
24162;DHT22;12318;51.262;7.066;2023-04-03T06:24:26;1.10;99.90
24162;DHT22;12318;51.262;7.066;2023-04-03T06:26:52;1.20;99.90
24162;DHT22;12318;51.262;7.066;2023-04-03T06:29:18;1.30;99.90
24162;DHT22;12318;51.262;7.066;2023-04-03T06:31:44;1.40;99.90
24162;DHT22;12318;51.262;7.066;2023-04-03T06:34:10;1.40;99.90
24162;DHT22;12318;51.262;7.066;2023-04-03T06:36:37;1.40;99.90
24162;DHT22;12318;51.262;7.066;2023-04-03T06:39:04;1.50;99.90
24162;DHT22;12318;51.262;7.066;2023-04-03T06:41:31;1.60;99.90
24162;DHT22;12318;51.262;7.066;2023-04-03T06:43:57;1.80;99.90
24162;DHT22;12318;51.262;7.066;2023-04-03T06:46:24;1.80;99.90
24162;DHT22;12318;51.262;7.066;2023-04-03T06:48:51;1.90;99.90
24162;DHT22;12318;51.262;7.066;2023-04-03T06:51:21;2.00;99.90
24162;DHT22;12318;51.262;7.066;2023-04-03T06:53:47;2.10;99.90
24162;DHT22;12318;51.262;7.066;2023-04-03T06:56:14;2.30;99.90
24162;DHT22;12318;51.262;7.066;2023-04-03T06:58:40;2.20;99.90
24162;DHT22;12318;51.262;7.066;2023-04-03T07:01:07;2.30;99.90
24162;DHT22;12318;51.262;7.066;2023-04-03T07:03:33;2.20;99.90
24162;DHT22;12318;51.262;7.066;2023-04-03T07:05:59;2.20;99.90
24162;DHT22;12318;51.262;7.066;2023-04-03T07:08:24;2.20;99.90
24162;DHT22;12318;51.262;7.066;2023-04-03T07:10:51;2.30;99.90
24162;DHT22;12318;51.262;7.066;2023-04-03T07:13:17;2.40;99.90
24162;DHT22;12318;51.262;7.066;2023-04-03T07:15:43;2.50;99.90
24162;DHT22;12318;51.262;7.066;2023-04-03T07:18:09;2.60;99.90
24162;DHT22;12318;51.262;7.066;2023-04-03T07:20:35;2.70;99.90
24162;DHT22;12318;51.262;7.066;2023-04-03T07:23:01;2.80;99.90
24162;DHT22;12318;51.262;7.066;2023-04-03T07:25:28;3.00;99.90
24162;DHT22;12318;51.262;7.066;2023-04-03T07:27:54;3.00;99.90
24162;DHT22;12318;51.262;7.066;2023-04-03T07:30:23;3.10;99.90
24162;DHT22;12318;51.262;7.066;2023-04-03T07:32:49;3.20;99.90
24162;DHT22;12318;51.262;7.066;2023-04-03T07:35:15;3.20;99.90
24162;DHT22;12318;51.262;7.066;2023-04-03T07:37:41;3.20;99.90
24162;DHT22;12318;51.262;7.066;2023-04-03T07:40:08;3.20;99.90
24162;DHT22;12318;51.262;7.066;2023-04-03T07:42:34;3.20;99.90
24162;DHT22;12318;51.262;7.066;2023-04-03T07:45:11;3.20;99.90
24162;DHT22;12318;51.262;7.066;2023-04-03T07:47:36;3.30;99.90
24162;DHT22;12318;51.262;7.066;2023-04-03T07:50:02;3.50;99.40
24162;DHT22;12318;51.262;7.066;2023-04-03T07:52:28;3.50;98.90
24162;DHT22;12318;51.262;7.066;2023-04-03T07:54:54;3.60;97.90
24162;DHT22;12318;51.262;7.066;2023-04-03T07:57:20;3.60;97.10
24162;DHT22;12318;51.262;7.066;2023-04-03T07:59:45;3.70;97.50
24162;DHT22;12318;51.262;7.066;2023-04-03T08:02:12;3.70;96.80
24162;DHT22;12318;51.262;7.066;2023-04-03T08:04:38;3.80;96.10
24162;DHT22;12318;51.262;7.066;2023-04-03T08:07:04;3.80;95.70
24162;DHT22;12318;51.262;7.066;2023-04-03T08:09:30;3.70;94.70
24162;DHT22;12318;51.262;7.066;2023-04-03T08:11:57;3.70;93.90
24162;DHT22;12318;51.262;7.066;2023-04-03T08:14:23;3.60;93.10
24162;DHT22;12318;51.262;7.066;2023-04-03T08:16:50;3.80;93.40
24162;DHT22;12318;51.262;7.066;2023-04-03T08:19:16;3.80;92.70
24162;DHT22;12318;51.262;7.066;2023-04-03T08:21:44;3.70;92.20
24162;DHT22;12318;51.262;7.066;2023-04-03T08:24:11;3.80;93.10
24162;DHT22;12318;51.262;7.066;2023-04-03T08:26:37;3.80;91.80
24162;DHT22;12318;51.262;7.066;2023-04-03T08:29:03;3.90;92.30
24162;DHT22;12318;51.262;7.066;2023-04-03T08:31:29;3.80;92.50
24162;DHT22;12318;51.262;7.066;2023-04-03T08:33:57;3.90;92.60
24162;DHT22;12318;51.262;7.066;2023-04-03T08:36:25;4.00;92.30
24162;DHT22;12318;51.262;7.066;2023-04-03T08:38:53;4.00;91.90
24162;DHT22;12318;51.262;7.066;2023-04-03T08:41:38;4.20;92.30
24162;DHT22;12318;51.262;7.066;2023-04-03T08:49:24;4.40;85.20
24162;DHT22;12318;51.262;7.066;2023-04-03T08:51:52;4.30;85.70
24162;DHT22;12318;51.262;7.066;2023-04-03T08:54:32;4.20;85.60
24162;DHT22;12318;51.262;7.066;2023-04-03T08:57:00;4.50;86.40
24162;DHT22;12318;51.262;7.066;2023-04-03T08:59:31;4.60;85.80
24162;DHT22;12318;51.262;7.066;2023-04-03T09:02:01;4.70;83.50
24162;DHT22;12318;51.262;7.066;2023-04-03T09:04:31;4.50;82.20
24162;DHT22;12318;51.262;7.066;2023-04-03T09:07:05;4.70;83.90
24162;DHT22;12318;51.262;7.066;2023-04-03T09:09:40;4.80;83.40
24162;DHT22;12318;51.262;7.066;2023-04-03T09:14:57;5.20;78.90
24162;DHT22;12318;51.262;7.066;2023-04-03T09:22:38;4.90;73.20
24162;DHT22;12318;51.262;7.066;2023-04-03T09:25:28;4.90;74.80
24162;DHT22;12318;51.262;7.066;2023-04-03T09:27:56;4.90;74.00
24162;DHT22;12318;51.262;7.066;2023-04-03T09:30:24;5.00;76.30
24162;DHT22;12318;51.262;7.066;2023-04-03T09:32:52;5.30;77.70
24162;DHT22;12318;51.262;7.066;2023-04-03T09:35:29;5.30;76.90
24162;DHT22;12318;51.262;7.066;2023-04-03T09:38:18;5.20;73.80
24162;DHT22;12318;51.262;7.066;2023-04-03T09:41:05;5.70;76.40
24162;DHT22;12318;51.262;7.066;2023-04-03T09:43:33;5.50;71.60
24162;DHT22;12318;51.262;7.066;2023-04-03T09:46:28;5.60;74.80
24162;DHT22;12318;51.262;7.066;2023-04-03T09:48:59;5.40;74.60
24162;DHT22;12318;51.262;7.066;2023-04-03T09:51:29;5.50;76.30
24162;DHT22;12318;51.262;7.066;2023-04-03T09:53:55;5.30;70.20
24162;DHT22;12318;51.262;7.066;2023-04-03T09:56:25;5.60;74.20
24162;DHT22;12318;51.262;7.066;2023-04-03T10:01:31;5.70;67.70
24162;DHT22;12318;51.262;7.066;2023-04-03T10:06:34;5.90;69.80
24162;DHT22;12318;51.262;7.066;2023-04-03T10:14:34;6.10;69.00
24162;DHT22;12318;51.262;7.066;2023-04-03T10:20:14;6.20;63.90
24162;DHT22;12318;51.262;7.066;2023-04-03T10:23:02;6.20;59.70
24162;DHT22;12318;51.262;7.066;2023-04-03T10:28:00;6.10;53.20
24162;DHT22;12318;51.262;7.066;2023-04-03T10:45:01;6.70;38.90
24162;DHT22;12318;51.262;7.066;2023-04-03T10:53:30;7.50;38.60
24162;DHT22;12318;51.262;7.066;2023-04-03T10:56:21;7.30;35.30
24162;DHT22;12318;51.262;7.066;2023-04-03T11:01:49;7.00;35.70
24162;DHT22;12318;51.262;7.066;2023-04-03T11:04:18;7.20;33.10
24162;DHT22;12318;51.262;7.066;2023-04-03T11:06:50;7.10;34.00
24162;DHT22;12318;51.262;7.066;2023-04-03T11:09:31;7.00;32.40
24162;DHT22;12318;51.262;7.066;2023-04-03T11:12:09;7.00;32.70
24162;DHT22;12318;51.262;7.066;2023-04-03T11:14:36;7.30;33.10
24162;DHT22;12318;51.262;7.066;2023-04-03T11:17:26;7.30;32.30
24162;DHT22;12318;51.262;7.066;2023-04-03T11:25:40;7.30;30.50
24162;DHT22;12318;51.262;7.066;2023-04-03T11:28:13;7.30;30.50
24162;DHT22;12318;51.262;7.066;2023-04-03T11:33:52;7.40;30.90
24162;DHT22;12318;51.262;7.066;2023-04-03T11:36:38;7.40;30.60
24162;DHT22;12318;51.262;7.066;2023-04-03T11:39:35;7.20;31.60
24162;DHT22;12318;51.262;7.066;2023-04-03T11:42:33;7.40;33.70
24162;DHT22;12318;51.262;7.066;2023-04-03T11:47:51;7.50;35.30
24162;DHT22;12318;51.262;7.066;2023-04-03T12:13:41;7.50;36.00
24162;DHT22;12318;51.262;7.066;2023-04-03T12:16:23;7.40;35.80
24162;DHT22;12318;51.262;7.066;2023-04-03T12:26:48;7.80;36.70
24162;DHT22;12318;51.262;7.066;2023-04-03T12:43:47;8.10;38.70
24162;DHT22;12318;51.262;7.066;2023-04-03T12:46:18;7.70;36.40
24162;DHT22;12318;51.262;7.066;2023-04-03T12:54:34;7.70;35.60
24162;DHT22;12318;51.262;7.066;2023-04-03T12:57:24;7.70;35.00
24162;DHT22;12318;51.262;7.066;2023-04-03T12:59:50;7.70;34.20
24162;DHT22;12318;51.262;7.066;2023-04-03T13:02:30;7.50;34.00
24162;DHT22;12318;51.262;7.066;2023-04-03T13:04:58;7.60;37.30
24162;DHT22;12318;51.262;7.066;2023-04-03T13:07:36;7.60;37.90
24162;DHT22;12318;51.262;7.066;2023-04-03T13:10:15;7.60;40.10
24162;DHT22;12318;51.262;7.066;2023-04-03T13:12:50;7.90;39.30
24162;DHT22;12318;51.262;7.066;2023-04-03T13:15:41;7.70;38.00
24162;DHT22;12318;51.262;7.066;2023-04-03T13:18:25;7.50;40.20
24162;DHT22;12318;51.262;7.066;2023-04-03T13:20:52;7.50;37.30
24162;DHT22;12318;51.262;7.066;2023-04-03T13:23:19;7.40;37.70
24162;DHT22;12318;51.262;7.066;2023-04-03T13:25:47;7.50;38.60
24162;DHT22;12318;51.262;7.066;2023-04-03T13:28:17;7.50;38.20
24162;DHT22;12318;51.262;7.066;2023-04-03T13:33:59;7.50;39.30
24162;DHT22;12318;51.262;7.066;2023-04-03T13:36:37;7.50;41.30
24162;DHT22;12318;51.262;7.066;2023-04-03T13:39:24;7.50;38.80
24162;DHT22;12318;51.262;7.066;2023-04-03T13:41:55;7.50;40.50
24162;DHT22;12318;51.262;7.066;2023-04-03T13:47:01;7.80;40.40
24162;DHT22;12318;51.262;7.066;2023-04-03T13:49:40;7.70;39.60
24162;DHT22;12318;51.262;7.066;2023-04-03T13:52:30;7.80;40.60
24162;DHT22;12318;51.262;7.066;2023-04-03T13:54:59;7.80;39.00
24162;DHT22;12318;51.262;7.066;2023-04-03T13:57:26;7.50;37.50
24162;DHT22;12318;51.262;7.066;2023-04-03T13:59:53;7.50;38.80
24162;DHT22;12318;51.262;7.066;2023-04-03T14:02:26;7.70;41.30
24162;DHT22;12318;51.262;7.066;2023-04-03T14:04:57;7.70;41.10
24162;DHT22;12318;51.262;7.066;2023-04-03T14:07:25;7.70;39.90
24162;DHT22;12318;51.262;7.066;2023-04-03T14:09:52;8.10;42.50
24162;DHT22;12318;51.262;7.066;2023-04-03T14:12:21;8.40;43.30
24162;DHT22;12318;51.262;7.066;2023-04-03T14:14:49;7.90;40.70
24162;DHT22;12318;51.262;7.066;2023-04-03T14:17:21;8.10;43.90
24162;DHT22;12318;51.262;7.066;2023-04-03T14:19:49;7.80;41.60
24162;DHT22;12318;51.262;7.066;2023-04-03T14:22:25;7.50;39.70
24162;DHT22;12318;51.262;7.066;2023-04-03T14:24:51;7.40;41.10
24162;DHT22;12318;51.262;7.066;2023-04-03T14:27:30;7.60;41.80
24162;DHT22;12318;51.262;7.066;2023-04-03T14:29:58;7.80;42.20
24162;DHT22;12318;51.262;7.066;2023-04-03T14:32:26;7.90;41.10
24162;DHT22;12318;51.262;7.066;2023-04-03T14:34:52;7.70;40.90
24162;DHT22;12318;51.262;7.066;2023-04-03T14:37:21;7.70;41.20
24162;DHT22;12318;51.262;7.066;2023-04-03T14:39:48;7.80;41.10
24162;DHT22;12318;51.262;7.066;2023-04-03T14:42:21;7.50;41.80
24162;DHT22;12318;51.262;7.066;2023-04-03T14:44:48;7.50;40.40
24162;DHT22;12318;51.262;7.066;2023-04-03T14:47:19;7.60;42.80
24162;DHT22;12318;51.262;7.066;2023-04-03T14:49:46;7.60;43.00
24162;DHT22;12318;51.262;7.066;2023-04-03T14:52:25;7.60;43.30
24162;DHT22;12318;51.262;7.066;2023-04-03T14:54:52;7.50;41.40
24162;DHT22;12318;51.262;7.066;2023-04-03T14:57:18;7.60;42.80
24162;DHT22;12318;51.262;7.066;2023-04-03T14:59:45;7.50;43.00
24162;DHT22;12318;51.262;7.066;2023-04-03T15:02:25;7.50;42.10
24162;DHT22;12318;51.262;7.066;2023-04-03T15:04:51;7.50;40.60
24162;DHT22;12318;51.262;7.066;2023-04-03T15:07:17;7.40;41.30
24162;DHT22;12318;51.262;7.066;2023-04-03T15:09:43;7.30;42.90
24162;DHT22;12318;51.262;7.066;2023-04-03T15:12:10;7.50;42.10
24162;DHT22;12318;51.262;7.066;2023-04-03T15:14:36;7.30;42.30
24162;DHT22;12318;51.262;7.066;2023-04-03T15:17:02;7.30;42.30
24162;DHT22;12318;51.262;7.066;2023-04-03T15:19:30;7.50;43.20
24162;DHT22;12318;51.262;7.066;2023-04-03T15:21:57;7.50;41.60
24162;DHT22;12318;51.262;7.066;2023-04-03T15:24:23;7.40;42.50
24162;DHT22;12318;51.262;7.066;2023-04-03T15:26:48;7.50;42.90
24162;DHT22;12318;51.262;7.066;2023-04-03T15:29:14;7.40;42.20
24162;DHT22;12318;51.262;7.066;2023-04-03T15:31:40;7.40;43.60
24162;DHT22;12318;51.262;7.066;2023-04-03T15:34:06;7.40;44.50
24162;DHT22;12318;51.262;7.066;2023-04-03T15:36:31;7.50;42.80
24162;DHT22;12318;51.262;7.066;2023-04-03T15:38:57;7.60;41.90
24162;DHT22;12318;51.262;7.066;2023-04-03T15:41:23;7.40;42.90
24162;DHT22;12318;51.262;7.066;2023-04-03T15:43:49;7.60;42.70
24162;DHT22;12318;51.262;7.066;2023-04-03T15:46:15;7.70;43.70
24162;DHT22;12318;51.262;7.066;2023-04-03T15:48:40;7.60;41.90
24162;DHT22;12318;51.262;7.066;2023-04-03T15:51:06;7.30;41.20
24162;DHT22;12318;51.262;7.066;2023-04-03T15:53:32;7.20;42.40
24162;DHT22;12318;51.262;7.066;2023-04-03T15:55:58;7.20;41.50
24162;DHT22;12318;51.262;7.066;2023-04-03T15:58:24;7.10;42.00
24162;DHT22;12318;51.262;7.066;2023-04-03T16:00:50;7.10;42.50
24162;DHT22;12318;51.262;7.066;2023-04-03T16:03:18;7.30;43.80
24162;DHT22;12318;51.262;7.066;2023-04-03T16:05:45;7.30;42.20
24162;DHT22;12318;51.262;7.066;2023-04-03T16:08:11;7.20;42.10
24162;DHT22;12318;51.262;7.066;2023-04-03T16:10:38;7.30;42.80
24162;DHT22;12318;51.262;7.066;2023-04-03T16:13:04;7.30;42.60
24162;DHT22;12318;51.262;7.066;2023-04-03T16:15:31;7.20;42.10
24162;DHT22;12318;51.262;7.066;2023-04-03T16:17:58;7.20;41.80
24162;DHT22;12318;51.262;7.066;2023-04-03T16:20:25;7.30;42.80
24162;DHT22;12318;51.262;7.066;2023-04-03T16:22:51;7.20;43.70
24162;DHT22;12318;51.262;7.066;2023-04-03T16:25:17;7.30;43.10
24162;DHT22;12318;51.262;7.066;2023-04-03T16:27:43;7.40;43.70
24162;DHT22;12318;51.262;7.066;2023-04-03T16:30:10;7.30;44.80
24162;DHT22;12318;51.262;7.066;2023-04-03T16:32:37;7.30;43.50
24162;DHT22;12318;51.262;7.066;2023-04-03T16:35:04;7.20;42.90
24162;DHT22;12318;51.262;7.066;2023-04-03T16:37:30;7.00;44.10
24162;DHT22;12318;51.262;7.066;2023-04-03T16:39:56;7.10;44.30
24162;DHT22;12318;51.262;7.066;2023-04-03T16:42:24;7.00;44.20
24162;DHT22;12318;51.262;7.066;2023-04-03T16:44:50;6.80;43.80
24162;DHT22;12318;51.262;7.066;2023-04-03T16:47:16;6.80;44.50
24162;DHT22;12318;51.262;7.066;2023-04-03T16:49:45;6.70;44.00
24162;DHT22;12318;51.262;7.066;2023-04-03T16:52:11;6.80;45.40
24162;DHT22;12318;51.262;7.066;2023-04-03T16:54:37;6.70;44.60
24162;DHT22;12318;51.262;7.066;2023-04-03T16:57:03;6.70;44.70
24162;DHT22;12318;51.262;7.066;2023-04-03T16:59:28;6.60;44.10
24162;DHT22;12318;51.262;7.066;2023-04-03T17:01:54;6.60;44.80
24162;DHT22;12318;51.262;7.066;2023-04-03T17:04:20;6.60;44.40
24162;DHT22;12318;51.262;7.066;2023-04-03T17:06:46;6.50;44.80
24162;DHT22;12318;51.262;7.066;2023-04-03T17:09:12;6.50;45.20
24162;DHT22;12318;51.262;7.066;2023-04-03T17:11:38;6.40;45.20
24162;DHT22;12318;51.262;7.066;2023-04-03T17:14:05;6.50;44.80
24162;DHT22;12318;51.262;7.066;2023-04-03T17:16:33;6.40;44.50
24162;DHT22;12318;51.262;7.066;2023-04-03T17:18:59;6.40;45.30
24162;DHT22;12318;51.262;7.066;2023-04-03T17:21:25;6.30;46.30
24162;DHT22;12318;51.262;7.066;2023-04-03T17:23:58;6.30;45.30
24162;DHT22;12318;51.262;7.066;2023-04-03T17:26:25;6.20;45.30
24162;DHT22;12318;51.262;7.066;2023-04-03T17:28:52;6.20;45.60
24162;DHT22;12318;51.262;7.066;2023-04-03T17:31:18;6.20;45.50
24162;DHT22;12318;51.262;7.066;2023-04-03T17:33:44;6.10;45.90
24162;DHT22;12318;51.262;7.066;2023-04-03T17:36:10;6.20;46.70
24162;DHT22;12318;51.262;7.066;2023-04-03T17:38:36;6.00;45.90
24162;DHT22;12318;51.262;7.066;2023-04-03T17:41:05;5.90;46.20
24162;DHT22;12318;51.262;7.066;2023-04-03T17:43:32;5.90;46.30
24162;DHT22;12318;51.262;7.066;2023-04-03T17:46:02;5.90;46.80
24162;DHT22;12318;51.262;7.066;2023-04-03T17:48:29;5.80;46.70
24162;DHT22;12318;51.262;7.066;2023-04-03T17:50:55;5.80;46.60
24162;DHT22;12318;51.262;7.066;2023-04-03T17:53:21;5.80;46.90
24162;DHT22;12318;51.262;7.066;2023-04-03T17:55:47;5.70;46.70